If you wish to contribute or participate in the discussions about articles you are invited to join SKYbrary as a registered user

 Actions

Cherbourg-Maupertus Airport

From SKYbrary Wiki

LFRC
Airport
ICAO: LFRC – IATA: CER
Summary
Name Cherbourg-Maupertus Airport
Region Europe
Territory France FR.gif
Location , Basse-Normandie
Serving Cherbourg
Elevation 139.903 m
459 ft
459 ft139.903 m
Type medium airport
Coordinates 49° 39' 0.38" N, 1° 28' 13.01" W
Runways
Designator Length Width Surface ROPS
10/28 2440 m8,005.249 ft
45 m147.638 ft
ASP /


METAR
Observation LFRC 210800Z AUTO 17004KT CAVOK 14/13 Q1028 NOSIG
Station Cherbourg / Maupertus
Date/Time 21 August 2019 08:00:00
Wind direction 170°
Wind speed 04 kts
Lowest cloud amount clouds and visibility OK
Temperature 14°C
Dew point 13°C
Humidity 93%
QNH 1028 hPa
Weather condition n/a